DFW weather

Dallas Fort Worth International Airport
Dallas-Fort Worth, Texas, United States

Public forecast

Using degrees Fahrenheit for public forecast. Weather courtesy of forecast.io.

METAR (pilot weather report)

Retrieved 2018/12/13 02:53 UTC (48 minutes ago):

KDFW 130253Z 18013G20KT 10SM FEW014 BKN110 BKN180 OVC240 16/13 A2979 RMK AO2 SLP085 T01560133 56007

TAF (pilot weather forecast)

Forecast is more than 12 hours old.

Retrieved 2018/12/12 00:36 UTC (1 day ago):

TAF KDFW 122334Z 1300/1406 17014KT P6SM SCT025 OVC250 FM130600 17013KT P6SM VCSH BKN025 TEMPO 1307/1311 6SM -SHRA FM131900 35015KT P6SM VCSH OVC015 FM132200 35022G32KT 5SM -SHRA BR BKN015 OVC025